createdAt,value
2022-11-16T00:02:06.017Z,99787.16
2022-11-16T00:04:27.902Z,99789.91
2022-11-16T00:06:50.157Z,99786.34
2022-11-16T00:09:26.879Z,99786.34
2022-11-16T00:11:52.402Z,99777.28
2022-11-16T00:14:14.374Z,99781.19
2022-11-16T00:16:36.523Z,99784.78
2022-11-16T00:19:02.850Z,99774.13
2022-11-16T00:21:26.849Z,99774.50
2022-11-16T00:23:48.924Z,99771.34
2022-11-16T00:26:12.890Z,99772.97
2022-11-16T00:28:36.131Z,99778.50
2022-11-16T00:31:04.680Z,99776.16
2022-11-16T00:33:26.698Z,99778.09
2022-11-16T00:35:51.339Z,99778.09
2022-11-16T00:38:16.400Z,99769.81
2022-11-16T00:40:41.413Z,99771.44
2022-11-16T00:43:09.569Z,99773.00
2022-11-16T00:45:31.626Z,99766.69
2022-11-16T00:47:59.175Z,99773.00
2022-11-16T00:50:25.212Z,99773.78
2022-11-16T00:52:47.432Z,99769.53
2022-11-16T00:55:13.534Z,99778.97
2022-11-16T00:57:36.243Z,99778.59
2022-11-16T00:59:59.405Z,99776.63
2022-11-16T01:02:21.441Z,99779.81
2022-11-16T01:04:43.905Z,99772.69
2022-11-16T01:07:05.971Z,99783.38
2022-11-16T01:09:27.930Z,99786.94
2022-11-16T01:12:08.147Z,99790.09
2022-11-16T01:14:30.634Z,99786.09
2022-11-16T01:16:52.487Z,99782.50
2022-11-16T01:19:15.529Z,99795.97
2022-11-16T01:21:37.491Z,99790.44
2022-11-16T01:23:59.588Z,99780.56
2022-11-16T01:26:21.605Z,99772.69
2022-11-16T01:28:43.533Z,99754.94
2022-11-16T01:31:06.677Z,99766.44
2022-11-16T01:33:31.557Z,99754.19
2022-11-16T01:35:53.624Z,99758.94
2022-11-16T01:38:18.389Z,99762.47
2022-11-16T01:40:40.468Z,99758.13
2022-11-16T01:43:02.505Z,99751.00
2022-11-16T01:45:41.331Z,99747.44
2022-11-16T01:48:06.803Z,99746.22
2022-11-16T01:50:29.815Z,99739.53
2022-11-16T01:53:04.032Z,99736.75
2022-11-16T01:55:37.796Z,99728.88
2022-11-16T01:58:18.923Z,99729.66
2022-11-16T02:00:44.785Z,99728.06
2022-11-16T02:03:23.241Z,99732.78
2022-11-16T02:06:10.805Z,99724.88
2022-11-16T02:09:23.985Z,99724.88
2022-11-16T02:12:37.775Z,99720.16
2022-11-16T02:15:34.170Z,99719.78
2022-11-16T02:18:49.731Z,99718.97
2022-11-16T02:21:27.220Z,99722.91
2022-11-16T02:24:14.077Z,99716.19
2022-11-16T02:27:23.662Z,99712.28
2022-11-16T02:29:51.549Z,99704.34
2022-11-16T02:32:46.551Z,99705.97
2022-11-16T02:35:28.942Z,99704.34
2022-11-16T02:38:08.054Z,99708.31
2022-11-16T02:40:35.665Z,99700.44
2022-11-16T02:43:21.774Z,99700.84
2022-11-16T02:45:54.107Z,99700.84
2022-11-16T02:48:27.477Z,99695.75
2022-11-16T02:50:54.125Z,99701.25
2022-11-16T02:53:16.203Z,99706.78
2022-11-16T02:55:38.440Z,99694.16
2022-11-16T02:58:11.138Z,99699.69
2022-11-16T03:01:15.852Z,99697.72
2022-11-16T03:03:50.258Z,99699.25
2022-11-16T03:06:31.516Z,99702.78
2022-11-16T03:09:05.657Z,99703.56
2022-11-16T03:11:49.038Z,99703.59
2022-11-16T03:14:20.748Z,99707.19
2022-11-16T03:16:50.330Z,99702.44
2022-11-16T03:19:21.328Z,99701.25
2022-11-16T03:22:03.404Z,99696.53
2022-11-16T03:24:26.179Z,99701.69
2022-11-16T03:26:59.875Z,99706.84
2022-11-16T03:29:34.037Z,99706.84
2022-11-16T03:32:19.200Z,99707.28
2022-11-16T03:35:06.665Z,99716.72
2022-11-16T03:37:30.969Z,99721.88
2022-11-16T03:39:57.829Z,99709.22
2022-11-16T03:42:24.764Z,99706.47
2022-11-16T03:44:49.846Z,99705.25
2022-11-16T03:47:13.938Z,99717.09
2022-11-16T03:49:36.293Z,99730.50
2022-11-16T03:51:59.147Z,99725.72
2022-11-16T03:54:21.292Z,99720.19
2022-11-16T03:56:43.258Z,99720.19
2022-11-16T03:59:05.289Z,99733.59
2022-11-16T04:01:27.369Z,99741.06
2022-11-16T04:03:49.301Z,99740.63
2022-11-16T04:06:31.607Z,99748.13
2022-11-16T04:09:12.005Z,99735.09
2022-11-16T04:11:54.510Z,99738.22
2022-11-16T04:14:41.724Z,99738.22
2022-11-16T04:17:31.716Z,99746.50
2022-11-16T04:20:12.353Z,99753.56
2022-11-16T04:23:25.030Z,99739.72
2022-11-16T04:25:51.501Z,99745.16
2022-11-16T04:28:17.569Z,99753.06
2022-11-16T04:31:08.196Z,99754.22
2022-11-16T04:33:51.670Z,99748.66
2022-11-16T04:36:32.214Z,99752.94
2022-11-16T04:38:54.194Z,99761.59
2022-11-16T04:41:35.061Z,99765.91
2022-11-16T04:43:58.511Z,99777.31
2022-11-16T04:46:39.201Z,99781.19
2022-11-16T04:49:01.253Z,99779.16
2022-11-16T04:51:23.231Z,99775.19
2022-11-16T04:53:45.088Z,99780.25
2022-11-16T04:56:15.030Z,99784.56
2022-11-16T04:58:37.729Z,99790.84
2022-11-16T05:01:00.319Z,99782.91
2022-11-16T05:03:23.246Z,99784.00
2022-11-16T05:05:45.798Z,99786.38
2022-11-16T05:08:09.291Z,99784.72
2022-11-16T05:10:31.606Z,99794.88
2022-11-16T05:12:54.494Z,99796.38
2022-11-16T05:15:19.684Z,99805.03
2022-11-16T05:17:42.697Z,99799.47
2022-11-16T05:20:29.231Z,99814.41
2022-11-16T05:22:58.625Z,99810.06
2022-11-16T05:25:26.394Z,99809.19
2022-11-16T05:27:48.808Z,99808.41
2022-11-16T05:30:11.970Z,99817.06
2022-11-16T05:32:34.543Z,99814.31
2022-11-16T05:34:56.752Z,99811.94
2022-11-16T05:37:21.192Z,99815.09
2022-11-16T05:39:43.443Z,99822.16
2022-11-16T05:42:07.278Z,99824.47
2022-11-16T05:44:29.283Z,99818.50
2022-11-16T05:46:51.720Z,99817.34
2022-11-16T05:49:15.265Z,99818.06
2022-11-16T05:51:39.084Z,99817.63
2022-11-16T05:54:02.906Z,99808.94
2022-11-16T05:56:24.999Z,99809.22
2022-11-16T05:58:48.818Z,99803.31
2022-11-16T06:01:10.922Z,99809.97
2022-11-16T06:03:33.622Z,99813.47
2022-11-16T06:05:57.194Z,99809.81
2022-11-16T06:08:21.322Z,99807.38
2022-11-16T06:10:46.697Z,99806.50
2022-11-16T06:13:08.697Z,99815.88
2022-11-16T06:15:30.720Z,99819.72
2022-11-16T06:17:53.329Z,99826.31
2022-11-16T06:20:16.480Z,99833.28
2022-11-16T06:22:39.815Z,99832.78
2022-11-16T06:25:02.772Z,99840.53
2022-11-16T06:27:24.851Z,99844.72
2022-11-16T06:29:46.822Z,99854.78
2022-11-16T06:32:08.752Z,99849.56
2022-11-16T06:34:30.866Z,99856.16
2022-11-16T06:36:53.399Z,99858.00
2022-11-16T06:39:15.935Z,99862.66
2022-11-16T06:41:41.386Z,99854.31
2022-11-16T06:44:05.293Z,99863.63
2022-11-16T06:46:32.390Z,99858.50
2022-11-16T06:48:54.524Z,99869.06
2022-11-16T06:51:17.086Z,99867.84
2022-11-16T06:53:39.081Z,99871.66
2022-11-16T06:56:05.464Z,99875.56
2022-11-16T06:58:33.267Z,99881.00
2022-11-16T07:00:55.380Z,99877.34
2022-11-16T07:03:18.259Z,99889.88
2022-11-16T07:05:44.826Z,99885.06
2022-11-16T07:08:10.073Z,99887.66
2022-11-16T07:10:32.002Z,99893.75
2022-11-16T07:12:53.929Z,99895.50
2022-11-16T07:15:16.468Z,99894.97
2022-11-16T07:17:42.966Z,99894.88
2022-11-16T07:20:05.588Z,99894.00
2022-11-16T07:22:28.357Z,99891.25
2022-11-16T07:24:50.495Z,99892.03
2022-11-16T07:27:13.424Z,99898.34
2022-11-16T07:29:39.456Z,99906.59
2022-11-16T07:32:24.574Z,99912.44
2022-11-16T07:35:22.069Z,99916.81
2022-11-16T07:37:44.156Z,99919.19
2022-11-16T07:40:09.372Z,99908.63
2022-11-16T07:42:32.952Z,99912.63
2022-11-16T07:45:01.754Z,99923.75
2022-11-16T07:47:23.660Z,99925.78
2022-11-16T07:49:45.602Z,99927.50
2022-11-16T07:52:13.697Z,99936.19
2022-11-16T07:54:52.745Z,99922.88
2022-11-16T07:57:17.317Z,99929.66
2022-11-16T07:59:39.339Z,99934.13
2022-11-16T08:02:01.648Z,99936.59
2022-11-16T08:04:23.624Z,99938.97
2022-11-16T08:06:46.881Z,99950.09
2022-11-16T08:09:09.558Z,99944.34
2022-11-16T08:11:35.230Z,99956.59
2022-11-16T08:13:58.181Z,99946.38
2022-11-16T08:16:22.963Z,99951.09
2022-11-16T08:18:50.856Z,99956.31
2022-11-16T08:21:15.920Z,99954.47
2022-11-16T08:23:42.471Z,99958.09
2022-11-16T08:26:13.600Z,99963.34
2022-11-16T08:28:37.722Z,99961.03
2022-11-16T08:31:00.131Z,99958.00
2022-11-16T08:33:24.455Z,99958.09
2022-11-16T08:35:46.521Z,99948.66
2022-11-16T08:38:08.546Z,99948.31
2022-11-16T08:40:30.460Z,99951.97
2022-11-16T08:42:57.008Z,99951.25
2022-11-16T08:45:19.093Z,99956.03
2022-11-16T08:47:41.013Z,99957.81
2022-11-16T08:50:03.761Z,99953.53
2022-11-16T08:52:25.995Z,99965.88
2022-11-16T08:54:49.550Z,99968.28
2022-11-16T08:57:12.517Z,99970.25
2022-11-16T08:59:36.462Z,99978.25
2022-11-16T09:02:03.557Z,99971.56
2022-11-16T09:04:25.577Z,99987.38
2022-11-16T09:06:47.712Z,99984.28
2022-11-16T09:09:09.689Z,99988.63
2022-11-16T09:11:31.584Z,99981.59
2022-11-16T09:13:55.662Z,99981.25
2022-11-16T09:16:21.117Z,99985.22
2022-11-16T09:18:47.248Z,99980.50
2022-11-16T09:21:09.213Z,99984.59
2022-11-16T09:23:32.132Z,99978.38
2022-11-16T09:25:55.530Z,99981.63
2022-11-16T09:28:22.245Z,99986.44
2022-11-16T09:30:46.621Z,99990.00
2022-11-16T09:33:09.064Z,99989.63
2022-11-16T09:35:31.793Z,99991.31
2022-11-16T09:37:53.768Z,99985.50
2022-11-16T09:40:16.125Z,99984.06
2022-11-16T09:43:06.363Z,99988.22
2022-11-16T09:45:46.476Z,99999.03
2022-11-16T09:48:13.624Z,99996.81
2022-11-16T09:51:01.878Z,99998.56
2022-11-16T09:53:42.345Z,99994.69
2022-11-16T09:56:10.582Z,100004.22
2022-11-16T09:59:01.482Z,100003.22
2022-11-16T10:01:29.110Z,100009.59
2022-11-16T10:04:02.450Z,100003.31
2022-11-16T10:06:44.646Z,100004.59
2022-11-16T10:09:12.719Z,100001.38
2022-11-16T10:12:04.487Z,100005.06
2022-11-16T10:14:51.390Z,100002.03
2022-11-16T10:17:36.515Z,100005.72
2022-11-16T10:20:38.579Z,100005.34
2022-11-16T10:23:14.530Z,100003.38
2022-11-16T10:25:44.844Z,100001.91
2022-11-16T10:28:43.580Z,100002.78
2022-11-16T10:31:33.487Z,100009.09
2022-11-16T10:34:00.958Z,100000.50
2022-11-16T10:36:29.609Z,100009.66
2022-11-16T10:38:51.766Z,100005.34
2022-11-16T10:41:24.482Z,100006.97
2022-11-16T10:43:48.663Z,99996.63
2022-11-16T10:46:25.729Z,99999.16
2022-11-16T10:49:40.056Z,100000.81
2022-11-16T10:52:03.006Z,100001.31
2022-11-16T10:54:24.973Z,100002.59
2022-11-16T10:56:52.770Z,99997.56
2022-11-16T10:59:20.438Z,99993.19
2022-11-16T11:01:53.374Z,99992.47
2022-11-16T11:04:30.191Z,99983.84
2022-11-16T11:06:59.331Z,99979.97
2022-11-16T11:09:41.788Z,99987.50
2022-11-16T11:12:34.889Z,99983.19
2022-11-16T11:15:12.264Z,99974.59
2022-11-16T11:17:37.014Z,99978.16
2022-11-16T11:20:23.070Z,99974.69
2022-11-16T11:23:00.569Z,99971.63
2022-11-16T11:25:38.844Z,99974.03
2022-11-16T11:28:30.115Z,99966.84
2022-11-16T11:31:33.901Z,99961.19
2022-11-16T11:34:03.334Z,99972.56
2022-11-16T11:36:41.563Z,99957.53
2022-11-16T11:39:29.576Z,99964.16
2022-11-16T11:42:23.614Z,99966.56
2022-11-16T11:45:06.827Z,99963.41
2022-11-16T11:47:58.132Z,99955.53
2022-11-16T11:50:44.685Z,99948.53
2022-11-16T11:53:58.275Z,99947.16
2022-11-16T11:56:20.818Z,99949.38
2022-11-16T11:58:44.384Z,99945.91
2022-11-16T12:01:38.656Z,99950.25
2022-11-16T12:04:28.537Z,99938.72
2022-11-16T12:07:28.580Z,99943.47
2022-11-16T12:10:16.764Z,99945.75
2022-11-16T12:13:05.824Z,99938.28
2022-11-16T12:16:02.157Z,99938.63
2022-11-16T12:18:50.478Z,99936.22
2022-11-16T12:21:15.083Z,99935.44
2022-11-16T12:24:02.200Z,99940.97
2022-11-16T12:26:50.393Z,99929.47
2022-11-16T12:29:55.895Z,99926.69
2022-11-16T12:32:54.988Z,99924.66
2022-11-16T12:35:49.286Z,99918.75
2022-11-16T12:38:37.386Z,99910.06
2022-11-16T12:41:39.568Z,99915.31
2022-11-16T12:44:14.895Z,99907.88
2022-11-16T12:47:12.437Z,99906.31
2022-11-16T12:50:11.400Z,99905.63
2022-11-16T12:52:51.556Z,99889.94
2022-11-16T12:55:32.183Z,99894.75
2022-11-16T12:58:18.923Z,99883.81
2022-11-16T13:01:22.570Z,99887.88
2022-11-16T13:04:09.673Z,99887.13
2022-11-16T13:06:44.450Z,99873.31
2022-11-16T13:09:30.130Z,99880.00
2022-11-16T13:11:58.419Z,99871.69
2022-11-16T13:14:34.231Z,99864.22
2022-11-16T13:17:00.600Z,99870.09
2022-11-16T13:19:23.719Z,99860.91
2022-11-16T13:22:10.631Z,99862.16
2022-11-16T13:24:46.494Z,99855.44
2022-11-16T13:27:39.453Z,99842.00
2022-11-16T13:30:05.529Z,99854.16
2022-11-16T13:32:47.013Z,99866.34
2022-11-16T13:35:16.822Z,99857.19
2022-11-16T13:37:38.763Z,99862.28
2022-11-16T13:40:00.677Z,99861.03
2022-11-16T13:42:22.734Z,99862.19
2022-11-16T13:44:51.322Z,99864.53
2022-11-16T13:47:30.640Z,99858.31
2022-11-16T13:49:59.701Z,99854.44
2022-11-16T13:52:25.032Z,99860.81
2022-11-16T13:55:01.682Z,99848.16
2022-11-16T13:57:34.966Z,99853.69
2022-11-16T14:00:02.737Z,99850.50
2022-11-16T14:02:36.227Z,99847.47
2022-11-16T14:05:03.155Z,99849.53
2022-11-16T14:07:43.299Z,99848.44
2022-11-16T14:10:07.938Z,99846.91
2022-11-16T14:12:39.087Z,99843.00
2022-11-16T14:15:13.429Z,99838.66
2022-11-16T14:18:07.506Z,99835.88
2022-11-16T14:20:38.620Z,99828.72
2022-11-16T14:23:21.467Z,99834.56
2022-11-16T14:26:17.432Z,99836.44
2022-11-16T14:29:20.276Z,99832.41
2022-11-16T14:31:54.753Z,99828.41
2022-11-16T14:34:22.563Z,99824.81
2022-11-16T14:36:46.807Z,99824.38
2022-11-16T14:39:17.863Z,99823.97
2022-11-16T14:41:47.192Z,99817.22
2022-11-16T14:44:11.305Z,99813.25
2022-11-16T14:46:37.263Z,99805.34
2022-11-16T14:49:02.612Z,99804.91
2022-11-16T14:51:34.131Z,99808.44
2022-11-16T14:54:11.424Z,99798.88
2022-11-16T14:56:33.497Z,99800.38
2022-11-16T14:59:01.556Z,99791.28
2022-11-16T15:01:28.188Z,99785.66
2022-11-16T15:04:04.133Z,99793.50
2022-11-16T15:06:27.170Z,99797.78
2022-11-16T15:08:56.993Z,99799.28
2022-11-16T15:11:52.614Z,99795.22
2022-11-16T15:14:32.662Z,99787.59
2022-11-16T15:16:57.757Z,99777.59
2022-11-16T15:19:20.980Z,99770.78
2022-11-16T15:21:58.523Z,99765.97
2022-11-16T15:24:38.549Z,99764.66
2022-11-16T15:27:10.981Z,99773.22
2022-11-16T15:29:33.034Z,99766.38
2022-11-16T15:31:55.011Z,99765.47
2022-11-16T15:34:19.668Z,99776.41
2022-11-16T15:36:41.926Z,99771.22
2022-11-16T15:39:06.168Z,99765.56
2022-11-16T15:41:29.405Z,99759.94
2022-11-16T15:44:13.608Z,99744.06
2022-11-16T15:46:37.189Z,99732.91
2022-11-16T15:49:00.297Z,99731.28
2022-11-16T15:51:23.545Z,99734.31
2022-11-16T15:53:54.291Z,99750.06
2022-11-16T15:56:32.888Z,99751.50
2022-11-16T15:59:01.619Z,99738.78
2022-11-16T16:01:28.043Z,99741.50
2022-11-16T16:04:05.428Z,99742.66
2022-11-16T16:06:47.126Z,99741.44
2022-11-16T16:09:23.776Z,99734.69
2022-11-16T16:11:45.840Z,99722.84
2022-11-16T16:14:10.820Z,99732.34
2022-11-16T16:16:39.509Z,99725.69
2022-11-16T16:19:09.493Z,99722.94
2022-11-16T16:21:47.018Z,99708.75
2022-11-16T16:24:35.063Z,99705.56
2022-11-16T16:26:56.936Z,99709.50
2022-11-16T16:29:18.796Z,99708.31
2022-11-16T16:31:40.806Z,99704.75
2022-11-16T16:34:12.042Z,99699.25
2022-11-16T16:36:33.899Z,99700.78
2022-11-16T16:38:57.085Z,99693.72
2022-11-16T16:41:24.223Z,99698.09
2022-11-16T16:43:46.875Z,99692.19
2022-11-16T16:46:13.190Z,99693.78
2022-11-16T16:48:35.864Z,99691.03
2022-11-16T16:50:59.924Z,99691.47
2022-11-16T16:53:21.848Z,99681.22
2022-11-16T16:55:44.733Z,99688.31
2022-11-16T16:58:06.791Z,99684.41
2022-11-16T17:00:29.014Z,99681.28
2022-11-16T17:02:51.067Z,99674.94
2022-11-16T17:05:13.114Z,99662.34
2022-11-16T17:07:35.321Z,99662.34
2022-11-16T17:09:57.357Z,99664.28
2022-11-16T17:12:19.300Z,99656.00
2022-11-16T17:14:41.267Z,99659.56
2022-11-16T17:17:03.322Z,99648.47
2022-11-16T17:19:25.485Z,99647.66
2022-11-16T17:21:47.461Z,99649.56
2022-11-16T17:24:09.646Z,99647.19
2022-11-16T17:26:31.609Z,99643.94
2022-11-16T17:28:58.194Z,99648.63
2022-11-16T17:31:20.131Z,99647.34
2022-11-16T17:33:43.209Z,99649.22
2022-11-16T17:36:07.368Z,99651.50
2022-11-16T17:38:30.728Z,99657.34
2022-11-16T17:40:52.571Z,99649.38
2022-11-16T17:43:14.516Z,99651.22
2022-11-16T17:45:36.347Z,99642.06
2022-11-16T17:47:58.185Z,99639.63
2022-11-16T17:50:20.095Z,99638.75
2022-11-16T17:52:41.967Z,99635.16
2022-11-16T17:55:04.254Z,99628.00
2022-11-16T17:57:26.079Z,99628.28
2022-11-16T17:59:48.288Z,99621.91
2022-11-16T18:02:11.893Z,99618.28
2022-11-16T18:04:33.937Z,99628.81
2022-11-16T18:06:56.092Z,99629.56
2022-11-16T18:09:18.980Z,99627.91
2022-11-16T18:11:41.325Z,99626.66
2022-11-16T18:14:05.668Z,99625.88
2022-11-16T18:16:33.301Z,99624.63
2022-11-16T18:18:59.695Z,99612.75
2022-11-16T18:21:21.658Z,99621.38
2022-11-16T18:23:43.676Z,99631.94
2022-11-16T18:26:15.339Z,99626.44
2022-11-16T18:28:38.153Z,99629.16
2022-11-16T18:31:10.692Z,99637.41
2022-11-16T18:33:33.938Z,99633.44
2022-11-16T18:35:56.122Z,99626.31
2022-11-16T18:38:17.966Z,99619.56
2022-11-16T18:40:42.840Z,99619.56
2022-11-16T18:43:04.758Z,99612.03
2022-11-16T18:45:26.822Z,99623.41
2022-11-16T18:47:48.693Z,99627.28
2022-11-16T18:50:19.037Z,99615.81
2022-11-16T18:52:46.617Z,99618.13
2022-11-16T18:55:09.241Z,99622.03
2022-11-16T18:57:32.117Z,99612.53
2022-11-16T18:59:53.975Z,99607.84
2022-11-16T19:02:15.884Z,99608.66
2022-11-16T19:04:40.049Z,99603.94
2022-11-16T19:07:02.021Z,99596.09
2022-11-16T19:09:23.903Z,99596.09
2022-11-16T19:11:46.284Z,99593.00
2022-11-16T19:14:08.330Z,99589.88
2022-11-16T19:16:31.345Z,99573.34
2022-11-16T19:18:53.301Z,99567.03
2022-11-16T19:21:19.883Z,99567.41
2022-11-16T19:23:48.250Z,99557.19
2022-11-16T19:26:12.967Z,99545.38
2022-11-16T19:28:37.266Z,99545.00
2022-11-16T19:30:59.482Z,99542.63
2022-11-16T19:33:21.332Z,99545.38
2022-11-16T19:35:43.194Z,99537.09
2022-11-16T19:38:05.069Z,99534.00
2022-11-16T19:40:26.903Z,99521.41
2022-11-16T19:42:48.806Z,99521.41
2022-11-16T19:45:11.989Z,99519.44
2022-11-16T19:47:33.958Z,99510.75
2022-11-16T19:49:55.978Z,99508.00
2022-11-16T19:52:17.932Z,99496.97
2022-11-16T19:54:39.800Z,99492.25
2022-11-16T19:57:01.677Z,99495.00
2022-11-16T19:59:23.589Z,99478.84
2022-11-16T20:01:45.509Z,99472.53
2022-11-16T20:04:07.920Z,99477.69
2022-11-16T20:06:34.574Z,99469.44
2022-11-16T20:09:00.986Z,99466.69
2022-11-16T20:11:27.279Z,99458.00
2022-11-16T20:13:51.778Z,99450.16
2022-11-16T20:16:14.423Z,99444.66
2022-11-16T20:18:37.968Z,99445.44
2022-11-16T20:21:05.690Z,99445.09
2022-11-16T20:23:27.894Z,99445.09
2022-11-16T20:25:49.731Z,99425.44
2022-11-16T20:28:11.649Z,99426.25
2022-11-16T20:30:33.548Z,99421.13
2022-11-16T20:32:55.391Z,99429.41
2022-11-16T20:35:19.177Z,99415.63
2022-11-16T20:37:42.765Z,99412.09
2022-11-16T20:40:05.388Z,99418.38
2022-11-16T20:42:27.312Z,99405.06
2022-11-16T20:44:49.197Z,99405.47
2022-11-16T20:47:11.086Z,99404.69
2022-11-16T20:49:32.954Z,99401.56
2022-11-16T20:51:55.096Z,99407.50
2022-11-16T20:54:17.137Z,99400.03
2022-11-16T20:56:38.951Z,99407.13
2022-11-16T20:59:01.043Z,99398.88
2022-11-16T21:01:28.846Z,99392.19
2022-11-16T21:03:50.932Z,99391.41
2022-11-16T21:06:14.973Z,99383.13
2022-11-16T21:08:38.657Z,99373.72
2022-11-16T21:11:00.709Z,99374.50
2022-11-16T21:13:41.964Z,99369.38
2022-11-16T21:16:13.746Z,99361.09
2022-11-16T21:18:35.725Z,99356.78
2022-11-16T21:21:06.333Z,99350.09
2022-11-16T21:23:31.157Z,99346.97
2022-11-16T21:26:04.665Z,99348.19
2022-11-16T21:28:26.534Z,99331.59
2022-11-16T21:31:11.607Z,99322.19
2022-11-16T21:33:34.008Z,99316.59
2022-11-16T21:35:56.547Z,99300.50
2022-11-16T21:38:20.516Z,99299.34
2022-11-16T21:40:44.076Z,99303.69
2022-11-16T21:43:05.881Z,99289.56
2022-11-16T21:45:27.805Z,99291.91
2022-11-16T21:47:50.580Z,99288.00
2022-11-16T21:52:54.585Z,99274.66
2022-11-16T21:55:16.460Z,99273.91
2022-11-16T21:57:38.455Z,99267.22
2022-11-16T22:00:01.147Z,99267.66
2022-11-16T22:02:33.407Z,99265.31
2022-11-16T22:05:13.784Z,99266.19
2022-11-16T22:07:38.465Z,99264.22
2022-11-16T22:10:01.561Z,99262.25
2022-11-16T22:12:23.381Z,99252.78
2022-11-16T22:14:45.190Z,99248.88
2022-11-16T22:17:08.364Z,99245.75
2022-11-16T22:19:30.539Z,99240.22
2022-11-16T22:21:52.671Z,99227.63
2022-11-16T22:24:14.852Z,99223.69
2022-11-16T22:26:38.147Z,99218.19
2022-11-16T22:29:00.150Z,99204.81
2022-11-16T22:31:22.106Z,99194.94
2022-11-16T22:33:43.943Z,99194.53
2022-11-16T22:36:09.325Z,99181.91
2022-11-16T22:38:31.594Z,99169.31
2022-11-16T22:40:56.824Z,99166.16
2022-11-16T22:43:29.756Z,99154.72
2022-11-16T22:45:52.007Z,99141.69
2022-11-16T22:48:14.543Z,99127.50
2022-11-16T22:50:36.390Z,99131.81
2022-11-16T22:52:58.993Z,99121.56
2022-11-16T22:55:20.825Z,99114.09
2022-11-16T22:57:42.676Z,99110.56
2022-11-16T23:00:06.506Z,99108.97
2022-11-16T23:02:28.405Z,99092.03
2022-11-16T23:04:50.272Z,99089.69
2022-11-16T23:07:12.198Z,99080.25
2022-11-16T23:09:34.454Z,99081.03
2022-11-16T23:12:14.787Z,99066.47
2022-11-16T23:14:54.966Z,99061.75
2022-11-16T23:17:16.838Z,99058.59
2022-11-16T23:19:57.658Z,99039.72
2022-11-16T23:22:40.551Z,99033.78
2022-11-16T23:25:21.443Z,99025.88
2022-11-16T23:28:03.953Z,99017.25
2022-11-16T23:30:27.158Z,99003.06
2022-11-16T23:32:49.338Z,98993.66
2022-11-16T23:35:11.907Z,98983.41
2022-11-16T23:37:34.198Z,98981.44
2022-11-16T23:39:56.037Z,98976.34
2022-11-16T23:42:36.459Z,98972.41
2022-11-16T23:44:58.282Z,98965.34
2022-11-16T23:47:20.199Z,98951.19
2022-11-16T23:49:42.108Z,98939.78
2022-11-16T23:52:04.156Z,98915.00
2022-11-16T23:54:26.071Z,98917.38
2022-11-16T23:56:48.038Z,98907.94
2022-11-16T23:59:09.887Z,98904.81
